• Join FlightAware (Why Join?)
  • Login
  • US Flag 
05:24PM EST


 

Airport Tracker/Info


-or-


 

Live Flight TrackerFlight Track Log ✈ AAL1669 ✈ 12-Mar-2012 ✈ KDFW - KSNA

Flight Track Log - Related Links

Times and Time Zones

All times are in EDT time to prevent confusion due to time zone crossing. See the AAL1669 flight status page for this flight to view local times or setup timezone preferences in your user account.

Time Position Orientation Groundspeed Altitude Reporting Facility
EDT Latitude Longitude Course Direction KTS MPH feet Rate Location/Type
10:37AM 32.8654 -97.0333 226° Southwest  Level FlightAware Approximate
10:38AM 32.7598 -97.0434 356° North  Level FlightAware Approximate
10:39AM 32.8517 -97.0506 182° South 169 194 2,400  Level FAA TRACON SMA TRACON (SMA)
10:39AM 32.8119 -97.0525 181° South 212 244 3,000 1,519 Climbing FAA TRACON SMA TRACON (SMA)
10:40AM 32.7644 -97.0536 183° South 250 288 4,400 2,175 Climbing FAA TRACON SMA TRACON (SMA)
10:41AM 32.7219 -97.0567 239° Southwest 250 288 5,900 2,175 Climbing FAA TRACON SMA TRACON (SMA)
10:41AM 32.6989 -97.1028 261° West 252 290 7,300 2,250 Climbing FAA TRACON SMA TRACON (SMA)
10:42AM 32.6908 -97.1625 289° West 268 308 8,900 2,430 Climbing FAA TRACON SMA TRACON (SMA)
10:42AM 32.7067 -97.2158 290° West 278 320 10,500 1,650 Climbing FAA TRACON SMA TRACON (SMA)
10:43AM 32.7272 -97.2825 290° West 312 359 11,100 1,259 Climbing FAA TRACON SMA TRACON (SMA)
10:44AM 32.7478 -97.3494 290° West 351 404 12,200 2,700 Climbing FAA TRACON SMA TRACON (SMA)
10:45AM 32.7708 -97.4253 290° West 350 403 14,700 3,185 Climbing FAA TRACON SMA TRACON (SMA)
10:45AM 32.7936 -97.4994 290° West 343 395 16,500 2,500 Climbing FAA TRACON SMA TRACON (SMA)
10:46AM 32.8042 -97.5333 289° West 352 405 17,200 2,308 Climbing FAA TRACON SMA TRACON (SMA)
10:46AM 32.8142 -97.5675 291° West 355 409 18,000 2,550 Climbing FAA TRACON SMA TRACON (SMA)
10:46AM 32.8281 -97.6108 291° West 362 417 18,900 2,550 Climbing FAA TRACON SMA TRACON (SMA)
10:47AM 32.8394 -97.6458 289° West 365 420 19,700 2,250 Climbing FAA TRACON SMA TRACON (SMA)
10:47AM 32.8494 -97.6811 288° West 367 422 20,400 2,250 Climbing FAA TRACON SMA TRACON (SMA)
10:47AM 32.8614 -97.7253 276° West 364 419 21,200 2,195 Climbing FAA TRACON SMA TRACON (SMA)
10:48AM 32.8647 -97.7619 274° West 366 421 21,900 1,950 Climbing FAA TRACON SMA TRACON (SMA)
10:48AM 32.8667 -97.7997 268° West 369 425 22,500 1,692 Climbing FAA TRACON SMA TRACON (SMA)
10:48AM 32.8653 -97.8469 271° West 371 427 23,000 750 Climbing FAA TRACON SMA TRACON (SMA)
10:49AM 32.8658 -97.8850 270° West 371 427 23,000  Level FAA TRACON SMA TRACON (SMA)
10:49AM 32.8658 -97.9225 269° West 372 428 23,000  Level FAA TRACON SMA TRACON (SMA)
10:49AM 32.8650 -97.9697 269° West 371 427 23,000 1,516 Level FAA TRACON SMA TRACON (SMA)
10:50AM 32.8631 -98.1150 269° West 379 436 25,300 1,882 Climbing FlightAware ADS-B
10:51AM 32.8624 -98.1814 269° West 382 440 26,200 1,672 Climbing FlightAware ADS-B
10:51AM 32.8617 -98.2451 270° West 384 442 27,000 1,333 Climbing FlightAware ADS-B
10:52AM 32.8614 -98.3358 269° West 383 441 28,000 1,405 Climbing Fort Worth Center
10:53AM 32.8589 -98.4817 281° West 396 456 29,600 1,487 Climbing FlightAware ADS-B
10:54AM 32.8783 -98.6035 286° West 398 458 30,900 1,448 Climbing FlightAware ADS-B
10:55AM 32.8936 -98.6665 286° West 396 456 31,700 1,477 Climbing FlightAware ADS-B
10:55AM 32.9111 -98.7387 286° West 395 455 32,500 1,385 Climbing FlightAware ADS-B
10:56AM 32.9263 -98.8019 286° West 391 450 33,200 1,138 Climbing FlightAware ADS-B
10:57AM 32.9692 -98.9803 286° West 391 450 34,700 978 Climbing FlightAware ADS-B
10:58AM 32.9936 -99.0825 286° West 397 457 35,400 780 Climbing FlightAware ADS-B
10:59AM 33.0190 -99.1888 286° West 397 457 36,000 444 Climbing FlightAware ADS-B
10:59AM 33.0341 -99.2523 286° West 394 453 36,000  Level FlightAware ADS-B
11:00AM 33.0515 -99.3256 286° West 393 452 36,000  Level FlightAware ADS-B
11:00AM 33.0662 -99.3884 286° West 393 452 36,000  Level FlightAware ADS-B
11:01AM 33.0821 -99.4559 286° West 394 453 36,000  Level FlightAware ADS-B
11:02AM 33.1000 -99.5319 286° West 394 453 36,000  Level FlightAware ADS-B
11:03AM 33.1305 -99.6625 286° West 395 455 36,000  Level FlightAware ADS-B
11:03AM 33.1458 -99.7281 286° West 395 455 36,000  Level FlightAware ADS-B
11:04AM 33.1769 -99.8556 285° West 394 453 36,000  Level Fort Worth Center
11:05AM 33.2056 -99.9831 286° West 394 453 36,000  Level Fort Worth Center
11:06AM 33.2344 -100.1056 284° West 394 453 36,000  Level Fort Worth Center
11:07AM 33.2608 -100.2306 286° West 394 453 36,000  Level Fort Worth Center
11:08AM 33.2894 -100.3533 286° West 394 453 36,000  Level Fort Worth Center
11:09AM 33.3197 -100.4811 284° West 394 453 36,000  Level Fort Worth Center
11:10AM 33.3458 -100.6039 285° West 394 453 36,000  Level Fort Worth Center
11:12AM 33.4019 -100.8547 284° West 394 453 36,000  Level Fort Worth Center
11:13AM 33.4294 -100.9850 286° West 394 453 36,000  Level Fort Worth Center
11:14AM 33.4592 -101.1108 284° West 394 453 36,000  Level Fort Worth Center
11:15AM 33.4831 -101.2239 284° West 394 453 36,000  Level Fort Worth Center
11:16AM 33.5122 -101.3597 285° West 389 448 36,000  Level Fort Worth Center
11:17AM 33.5378 -101.4728 284° West 389 448 36,000  Level Fort Worth Center
11:18AM 33.5667 -101.6114 286° West 389 448 36,000  Level Fort Worth Center
11:19AM 33.5978 -101.7400 285° West 401 461 36,000  Level Fort Worth Center
11:20AM 33.6211 -101.8483 283° West 387 445 36,000  Level Fort Worth Center
11:21AM 33.6456 -101.9744 284° West 393 452 36,000  Level Fort Worth Center
11:23AM 33.7011 -102.2344 284° West 411 473 36,000  Level Albuquerque Center
11:24AM 33.7275 -102.3603 284° West 396 456 36,000  Level Albuquerque Center
11:25AM 33.7533 -102.4861 284° West 396 456 36,000  Level Albuquerque Center
11:26AM 33.7792 -102.6069 284° West 382 440 36,000  Level Albuquerque Center
11:27AM 33.8053 -102.7378 284° West 390 449 36,000  Level Albuquerque Center
11:28AM 33.8306 -102.8589 283° West 388 447 36,000  Level Albuquerque Center
11:29AM 33.8542 -102.9853 283° West 388 447 36,000  Level Albuquerque Center
11:30AM 33.8797 -103.1139 285° West 393 452 36,000  Level Albuquerque Center
11:31AM 33.9067 -103.2353 282° West 388 447 36,000  Level Albuquerque Center
11:32AM 33.9300 -103.3667 282° West 394 453 36,000  Level Albuquerque Center
11:33AM 33.9531 -103.4958 285° West 407 468 36,000  Level Albuquerque Center
11:34AM 33.9775 -103.6097 284° West 397 457 36,000  Level Albuquerque Center
11:35AM 34.0022 -103.7314 283° West 383 441 36,000  Level Albuquerque Center
11:36AM 34.0269 -103.8606 283° West 389 448 36,000  Level Albuquerque Center
11:37AM 34.0514 -103.9850 283° West 389 448 36,000  Level Albuquerque Center
11:38AM 34.0756 -104.1119 282° West 389 448 36,000  Level Albuquerque Center
11:39AM 34.0978 -104.2389 283° West 389 448 36,000  Level Albuquerque Center
11:40AM 34.1244 -104.3808 284° West 395 455 36,000  Level Albuquerque Center
11:41AM 34.1506 -104.5078 283° West 395 455 36,000  Level Albuquerque Center
11:42AM 34.1742 -104.6350 283° West 388 447 36,000  Level Albuquerque Center
11:43AM 34.1981 -104.7625 283° West 393 452 36,000  Level Albuquerque Center
11:44AM 34.2214 -104.8872 283° West 393 452 36,000  Level Albuquerque Center
11:45AM 34.2450 -105.0147 282° West 388 447 36,000  Level Albuquerque Center
11:46AM 34.2683 -105.1472 283° West 394 453 36,000  Level Albuquerque Center
11:47AM 34.2936 -105.2772 282° West 394 453 36,000  Level Albuquerque Center
11:48AM 34.3142 -105.3947 283° West 399 459 36,000  Level Albuquerque Center
11:49AM 34.3394 -105.5300 282° West 399 459 36,000  Level Albuquerque Center
11:50AM 34.3622 -105.6603 274° West 410 472 36,000  Level Albuquerque Center
11:51AM 34.3703 -105.7986 272° West 416 479 36,000  Level Albuquerque Center
11:52AM 34.3742 -105.9294 272° West 401 461 36,000  Level Albuquerque Center
11:53AM 34.3778 -106.0653 272° West 401 461 36,000  Level Albuquerque Center
11:54AM 34.3811 -106.2111 271° West 401 461 36,000  Level Albuquerque Center
11:55AM 34.3825 -106.3394 273° West 396 456 36,000  Level Albuquerque Center
11:56AM 34.3875 -106.4728 273° West 396 456 36,000  Level Albuquerque Center
11:57AM 34.3928 -106.6111 271° West 413 475 36,000  Level Albuquerque Center
11:58AM 34.3956 -106.7444 270° West 413 475 36,000  Level Albuquerque Center
11:59AM 34.3961 -106.8678 273° West 405 466 36,000  Level Albuquerque Center
12:00PM 34.4008 -106.9986 270° West 400 460 36,000  Level Albuquerque Center
12:01PM 34.4011 -107.1422 272° West 400 460 36,000  Level Albuquerque Center
12:02PM 34.4056 -107.2731 271° West 400 460 36,000  Level Albuquerque Center
12:03PM 34.4075 -107.3914 271° West 395 455 36,000  Level Albuquerque Center
12:04PM 34.4094 -107.5372 272° West 395 455 36,000  Level Albuquerque Center
12:05PM 34.4133 -107.6708 270° West 400 460 36,000  Level Albuquerque Center
12:06PM 34.4131 -107.8042 271° West 400 460 36,000  Level Albuquerque Center
12:07PM 34.4144 -107.9403 271° West 400 460 36,000  Level Albuquerque Center
12:08PM 34.4158 -108.0736 271° West 400 460 36,000  Level Albuquerque Center
12:09PM 34.4172 -108.2097 273° West 400 460 36,000  Level Albuquerque Center
12:10PM 34.4222 -108.3481 268° West 412 474 36,000  Level Albuquerque Center
12:11PM 34.4192 -108.4564 272° West 412 474 36,000  Level Albuquerque Center
12:12PM 34.4242 -108.6025 270° West 406 467 36,000  Level Albuquerque Center
12:13PM 34.4247 -108.7383 270° West 401 461 36,000  Level Albuquerque Center
12:14PM 34.4253 -108.8744 270° West 401 461 36,000  Level Albuquerque Center
12:15PM 34.4256 -109.0103 270° West 406 467 36,000  Level Albuquerque Center
12:16PM 34.4256 -109.1439 268° West 406 467 36,000  Level Albuquerque Center
12:17PM 34.4214 -109.2822 268° West 406 467 36,000  Level Albuquerque Center
12:18PM 34.4169 -109.4181 267° West 401 461 36,000  Level Albuquerque Center
12:19PM 34.4103 -109.5639 269° West 406 467 36,000  Level Albuquerque Center
12:20PM 34.4078 -109.6922 269° West 406 467 36,000  Level Albuquerque Center
12:21PM 34.4047 -109.8431 268° West 406 467 36,000  Level Albuquerque Center
12:22PM 34.3997 -109.9839 269° West 411 473 36,000  Level Albuquerque Center
12:23PM 34.3967 -110.1222 268° West 425 489 36,000  Level Albuquerque Center
12:24PM 34.3936 -110.2506 268° West 425 489 36,000  Level Albuquerque Center
12:25PM 34.3900 -110.3914 269° West 420 483 36,000  Level Albuquerque Center
12:26PM 34.3883 -110.5372 267° West 425 489 36,000  Level Albuquerque Center
12:27PM 34.3822 -110.6906 268° West 425 489 36,000  Level Albuquerque Center
12:28PM 34.3781 -110.8311 267° West 420 483 36,000  Level Albuquerque Center
12:29PM 34.3719 -110.9694 265° West 420 483 36,000  Level Albuquerque Center
12:30PM 34.3642 -111.0847 268° West 409 471 36,000  Level Albuquerque Center
12:31PM 34.3600 -111.2206 267° West 403 464 36,000  Level Albuquerque Center
12:32PM 34.3533 -111.3586 269° West 403 464 36,000  Level Albuquerque Center
12:33PM 34.3508 -111.4917 267° West 403 464 36,000  Level Albuquerque Center
12:34PM 34.3442 -111.6272 268° West 403 464 36,000  Level Albuquerque Center
12:35PM 34.3392 -111.7653 267° West 403 464 36,000  Level Albuquerque Center
12:36PM 34.3339 -111.9008 267° West 403 464 36,000  Level Albuquerque Center
12:37PM 34.3286 -112.0389 266° West 403 464 36,000  Level Albuquerque Center
12:38PM 34.3211 -112.1792 267° West 408 470 36,000  Level Albuquerque Center
12:39PM 34.3156 -112.3122 267° West 408 470 36,000  Level Albuquerque Center
12:40PM 34.3097 -112.4500 267° West 408 470 36,000  Level Albuquerque Center
12:41PM 34.3039 -112.5856 266° West 408 470 36,000  Level Albuquerque Center
12:42PM 34.2956 -112.7258 267° West 413 475 36,000  Level Albuquerque Center
12:43PM 34.2897 -112.8586 266° West 408 470 36,000  Level Albuquerque Center
12:44PM 34.2814 -112.9936 267° West 408 470 36,000  Level Albuquerque Center
12:45PM 34.2747 -113.1289 266° West 403 464 36,000  Level Albuquerque Center
12:46PM 34.2656 -113.2767 265° West 403 464 36,000  Level Albuquerque Center
12:47PM 34.2567 -113.4092 267° West 403 464 36,000  Level Albuquerque Center
12:50PM 34.2422 -113.7542 265° West 392 451 36,000  Level Los Angeles Center
12:51PM 34.2322 -113.8900 268° West 398 458 36,000  Level Los Angeles Center
12:52PM 34.2283 -114.0258 265° West 404 465 36,000 -347 Level Los Angeles Center
12:53PM 34.2181 -114.1592 266° West 409 471 35,300 -650 Descending Los Angeles Center
12:54PM 34.2097 -114.2950 266° West 409 471 34,700 -650 Descending Los Angeles Center
12:55PM 34.2014 -114.4308 266° West 409 471 34,000 -700 Descending Los Angeles Center
12:56PM 34.1928 -114.5717 263° West 409 471 33,300 -650 Descending Los Angeles Center
12:57PM 34.1797 -114.7075 259° West 409 471 32,700 -650 Descending Los Angeles Center
12:58PM 34.1583 -114.8433 257° West 409 471 32,000 -750 Descending Los Angeles Center
12:59PM 34.1325 -114.9794 258° West 409 471 31,200 -908 Descending Los Angeles Center
01:00PM 34.1086 -115.1128 259° West 409 471 30,200 -1,050 Descending Los Angeles Center
01:01PM 34.0867 -115.2433 258° West 409 471 29,100 -1,041 Descending Los Angeles Center
01:02PM 34.0644 -115.3739 257° West 409 471 28,100 -1,000 Descending Los Angeles Center
01:03PM 34.0403 -115.5019 258° West 409 471 27,100 -1,000 Descending Los Angeles Center
01:04PM 34.0178 -115.6275 258° West 399 459 26,100 -1,000 Descending Los Angeles Center
01:05PM 33.9953 -115.7503 258° West 388 447 25,100 -1,000 Descending Los Angeles Center
01:06PM 33.9728 -115.8758 259° West 388 447 24,100 -550 Descending Los Angeles Center
01:07PM 33.9519 -116.0011 257° West 388 447 24,000 -200 Descending Los Angeles Center
01:08PM 33.9311 -116.1111 257° West 388 447 23,700 -600 Descending Los Angeles Center
01:09PM 33.9061 -116.2389 258° West 393 452 22,800 -1,350 Descending Los Angeles Center
01:10PM 33.8828 -116.3664 265° West 393 452 21,000 -1,850 Descending Los Angeles Center
01:11PM 33.8742 -116.4889 274° West 393 452 19,100 -1,900 Descending Los Angeles Center
01:12PM 33.8822 -116.6267 272° West 388 447 17,200 -1,900 Descending Los Angeles Center
01:13PM 33.8858 -116.7492 269° West 383 441 15,300 -1,511 Descending Los Angeles Center
01:14PM 33.8833 -116.8833 260° West 352 405 13,900 -1,145 Descending Southern California TRACON
01:15PM 33.8667 -117.0000 261° West 346 398 12,800 -1,046 Descending Southern California TRACON
01:16PM 33.8564 -117.0767 262° West 349 402 12,000 -1,046 Descending Los Angeles Center
01:17PM 33.8453 -117.1767 257° West 328 377 10,900 -1,100 Descending Los Angeles Center
01:18PM 33.8278 -117.2689 260° West 303 349 9,800 -1,050 Descending Los Angeles Center
01:19PM 33.8142 -117.3589 261° West 286 329 8,800 -950 Descending Los Angeles Center
01:20PM 33.8028 -117.4461 259° West 272 313 7,900 -500 Descending Los Angeles Center
01:21PM 33.7894 -117.5283 261° West 256 295 7,800 -700 Descending Los Angeles Center
01:22PM 33.7803 -117.5958 290° West 229 264 6,500 -600 Descending Los Angeles Center
01:23PM 33.7983 -117.6561 297° West 191 220 6,600 -650 Climbing Los Angeles Center
01:24PM 33.8247 -117.7189 297° West 197 227 5,200 -1,400 Descending Los Angeles Center